sensor_id;sensor_type;location;lat;lon;timestamp;temperature;humidity
16929;DHT22;8581;47.334;11.190;2022-12-18T00:02:22;-4.50;99.90
16929;DHT22;8581;47.334;11.190;2022-12-18T00:04:54;-4.50;99.90
16929;DHT22;8581;47.334;11.190;2022-12-18T00:07:25;-4.50;99.90
16929;DHT22;8581;47.334;11.190;2022-12-18T00:09:57;-4.50;99.90
16929;DHT22;8581;47.334;11.190;2022-12-18T00:12:29;-4.60;99.90
16929;DHT22;8581;47.334;11.190;2022-12-18T00:15:00;-4.60;99.90
16929;DHT22;8581;47.334;11.190;2022-12-18T00:17:32;-4.70;99.90
16929;DHT22;8581;47.334;11.190;2022-12-18T00:20:04;-4.70;99.90
16929;DHT22;8581;47.334;11.190;2022-12-18T00:22:36;-4.70;99.90
16929;DHT22;8581;47.334;11.190;2022-12-18T00:25:08;-4.90;99.90
16929;DHT22;8581;47.334;11.190;2022-12-18T00:27:39;-5.00;99.90
16929;DHT22;8581;47.334;11.190;2022-12-18T00:30:11;-5.20;99.90
16929;DHT22;8581;47.334;11.190;2022-12-18T00:32:43;-5.10;99.90
16929;DHT22;8581;47.334;11.190;2022-12-18T00:35:15;-5.40;99.90
16929;DHT22;8581;47.334;11.190;2022-12-18T00:37:46;-5.70;99.90
16929;DHT22;8581;47.334;11.190;2022-12-18T00:40:18;-5.80;99.90
16929;DHT22;8581;47.334;11.190;2022-12-18T00:42:49;-6.00;99.90
16929;DHT22;8581;47.334;11.190;2022-12-18T00:45:28;-6.10;99.90
16929;DHT22;8581;47.334;11.190;2022-12-18T00:47:59;-6.20;99.90
16929;DHT22;8581;47.334;11.190;2022-12-18T00:50:31;-6.30;99.90
16929;DHT22;8581;47.334;11.190;2022-12-18T00:53:02;-6.50;99.90
16929;DHT22;8581;47.334;11.190;2022-12-18T00:55:34;-6.60;99.90
16929;DHT22;8581;47.334;11.190;2022-12-18T00:58:06;-6.70;99.90
16929;DHT22;8581;47.334;11.190;2022-12-18T01:00:37;-6.80;99.90
16929;DHT22;8581;47.334;11.190;2022-12-18T01:03:09;-6.90;99.90
16929;DHT22;8581;47.334;11.190;2022-12-18T01:05:40;-6.70;99.90
16929;DHT22;8581;47.334;11.190;2022-12-18T01:08:12;-6.80;99.90
16929;DHT22;8581;47.334;11.190;2022-12-18T01:10:44;-7.10;99.90
16929;DHT22;8581;47.334;11.190;2022-12-18T01:13:15;-7.10;99.90
16929;DHT22;8581;47.334;11.190;2022-12-18T01:15:49;-7.30;99.90
16929;DHT22;8581;47.334;11.190;2022-12-18T01:18:19;-7.40;99.90
16929;DHT22;8581;47.334;11.190;2022-12-18T01:20:51;-7.50;99.90
16929;DHT22;8581;47.334;11.190;2022-12-18T01:23:23;-7.60;99.90
16929;DHT22;8581;47.334;11.190;2022-12-18T01:25:54;-7.60;99.90
16929;DHT22;8581;47.334;11.190;2022-12-18T01:28:26;-7.60;99.90
16929;DHT22;8581;47.334;11.190;2022-12-18T01:31:01;-7.60;99.90
16929;DHT22;8581;47.334;11.190;2022-12-18T01:33:29;-7.60;99.90
16929;DHT22;8581;47.334;11.190;2022-12-18T01:36:01;-7.70;99.90
16929;DHT22;8581;47.334;11.190;2022-12-18T01:38:32;-7.90;99.90
16929;DHT22;8581;47.334;11.190;2022-12-18T01:41:04;-8.10;99.90
16929;DHT22;8581;47.334;11.190;2022-12-18T01:43:42;-8.30;99.90
16929;DHT22;8581;47.334;11.190;2022-12-18T01:46:13;-8.20;99.90
16929;DHT22;8581;47.334;11.190;2022-12-18T01:48:46;-8.20;99.90
16929;DHT22;8581;47.334;11.190;2022-12-18T01:51:16;-8.30;99.90
16929;DHT22;8581;47.334;11.190;2022-12-18T01:53:48;-8.40;99.90
16929;DHT22;8581;47.334;11.190;2022-12-18T01:56:20;-8.30;99.90
16929;DHT22;8581;47.334;11.190;2022-12-18T01:58:58;-8.00;99.90
16929;DHT22;8581;47.334;11.190;2022-12-18T02:01:26;-8.00;99.90
16929;DHT22;8581;47.334;11.190;2022-12-18T02:06:37;-8.20;99.90
16929;DHT22;8581;47.334;11.190;2022-12-18T02:09:11;-8.20;99.90
16929;DHT22;8581;47.334;11.190;2022-12-18T02:12:00;-8.10;99.90
16929;DHT22;8581;47.334;11.190;2022-12-18T02:14:35;-8.40;99.90
16929;DHT22;8581;47.334;11.190;2022-12-18T02:17:10;-8.60;99.90
16929;DHT22;8581;47.334;11.190;2022-12-18T02:19:58;-8.60;99.90
16929;DHT22;8581;47.334;11.190;2022-12-18T02:22:49;-8.50;99.90
16929;DHT22;8581;47.334;11.190;2022-12-18T02:25:35;-8.70;99.90
16929;DHT22;8581;47.334;11.190;2022-12-18T02:28:06;-8.70;99.90
16929;DHT22;8581;47.334;11.190;2022-12-18T02:30:37;-8.60;99.90
16929;DHT22;8581;47.334;11.190;2022-12-18T02:33:09;-8.80;99.90
16929;DHT22;8581;47.334;11.190;2022-12-18T02:35:40;-8.90;99.90
16929;DHT22;8581;47.334;11.190;2022-12-18T02:38:12;-9.00;99.90
16929;DHT22;8581;47.334;11.190;2022-12-18T02:40:43;-9.10;99.90
16929;DHT22;8581;47.334;11.190;2022-12-18T02:43:15;-9.10;99.90
16929;DHT22;8581;47.334;11.190;2022-12-18T02:45:48;-8.90;99.90
16929;DHT22;8581;47.334;11.190;2022-12-18T02:48:24;-8.90;99.90
16929;DHT22;8581;47.334;11.190;2022-12-18T02:50:57;-9.00;99.90
16929;DHT22;8581;47.334;11.190;2022-12-18T02:53:27;-9.00;99.90
16929;DHT22;8581;47.334;11.190;2022-12-18T02:56:07;-9.10;99.90
16929;DHT22;8581;47.334;11.190;2022-12-18T02:58:58;-9.00;99.90
16929;DHT22;8581;47.334;11.190;2022-12-18T03:04:24;-9.20;99.90
16929;DHT22;8581;47.334;11.190;2022-12-18T03:06:54;-9.10;99.90
16929;DHT22;8581;47.334;11.190;2022-12-18T03:09:29;-9.00;99.90
16929;DHT22;8581;47.334;11.190;2022-12-18T03:12:10;-9.20;99.90
16929;DHT22;8581;47.334;11.190;2022-12-18T03:14:54;-9.40;99.90
16929;DHT22;8581;47.334;11.190;2022-12-18T03:17:23;-9.50;99.90
16929;DHT22;8581;47.334;11.190;2022-12-18T03:19:54;-9.50;99.90
16929;DHT22;8581;47.334;11.190;2022-12-18T03:22:26;-9.40;99.90
16929;DHT22;8581;47.334;11.190;2022-12-18T03:24:57;-9.30;99.90
16929;DHT22;8581;47.334;11.190;2022-12-18T03:27:29;-9.40;99.90
16929;DHT22;8581;47.334;11.190;2022-12-18T03:30:03;-9.40;99.90
16929;DHT22;8581;47.334;11.190;2022-12-18T03:32:56;-9.40;99.90
16929;DHT22;8581;47.334;11.190;2022-12-18T03:35:26;-9.30;99.90
16929;DHT22;8581;47.334;11.190;2022-12-18T03:37:58;-9.00;99.90
16929;DHT22;8581;47.334;11.190;2022-12-18T03:40:35;-9.10;99.90
16929;DHT22;8581;47.334;11.190;2022-12-18T03:43:09;-9.30;99.90
16929;DHT22;8581;47.334;11.190;2022-12-18T03:45:42;-9.40;99.90
16929;DHT22;8581;47.334;11.190;2022-12-18T03:48:20;-9.50;99.90
16929;DHT22;8581;47.334;11.190;2022-12-18T03:50:57;-9.60;99.90
16929;DHT22;8581;47.334;11.190;2022-12-18T03:53:37;-9.80;99.90
16929;DHT22;8581;47.334;11.190;2022-12-18T03:56:10;-9.90;99.90
16929;DHT22;8581;47.334;11.190;2022-12-18T03:58:42;-9.90;99.90
16929;DHT22;8581;47.334;11.190;2022-12-18T04:01:14;-9.90;99.90
16929;DHT22;8581;47.334;11.190;2022-12-18T04:03:46;-9.70;99.90
16929;DHT22;8581;47.334;11.190;2022-12-18T04:06:17;-9.70;99.90
16929;DHT22;8581;47.334;11.190;2022-12-18T04:08:48;-9.80;99.90
16929;DHT22;8581;47.334;11.190;2022-12-18T04:11:20;-9.90;99.90
16929;DHT22;8581;47.334;11.190;2022-12-18T04:13:54;-9.90;99.90
16929;DHT22;8581;47.334;11.190;2022-12-18T04:16:25;-9.90;99.90
16929;DHT22;8581;47.334;11.190;2022-12-18T04:18:56;-10.00;99.90
16929;DHT22;8581;47.334;11.190;2022-12-18T04:21:28;-10.00;99.90
16929;DHT22;8581;47.334;11.190;2022-12-18T04:24:00;-10.00;99.90
16929;DHT22;8581;47.334;11.190;2022-12-18T04:26:31;-9.80;99.90
16929;DHT22;8581;47.334;11.190;2022-12-18T04:29:03;-9.90;99.90
16929;DHT22;8581;47.334;11.190;2022-12-18T04:31:35;-10.10;99.90
16929;DHT22;8581;47.334;11.190;2022-12-18T04:34:06;-10.20;99.90
16929;DHT22;8581;47.334;11.190;2022-12-18T04:36:38;-10.20;99.90
16929;DHT22;8581;47.334;11.190;2022-12-18T04:39:09;-10.40;99.90
16929;DHT22;8581;47.334;11.190;2022-12-18T04:41:41;-10.30;99.90
16929;DHT22;8581;47.334;11.190;2022-12-18T04:44:13;-10.30;99.90
16929;DHT22;8581;47.334;11.190;2022-12-18T04:46:44;-10.40;99.90
16929;DHT22;8581;47.334;11.190;2022-12-18T04:49:16;-10.40;99.90
16929;DHT22;8581;47.334;11.190;2022-12-18T04:51:47;-10.40;99.90
16929;DHT22;8581;47.334;11.190;2022-12-18T04:54:19;-10.50;99.90
16929;DHT22;8581;47.334;11.190;2022-12-18T04:56:51;-10.50;99.90
16929;DHT22;8581;47.334;11.190;2022-12-18T04:59:22;-10.40;99.90
16929;DHT22;8581;47.334;11.190;2022-12-18T05:01:54;-10.40;99.90
16929;DHT22;8581;47.334;11.190;2022-12-18T05:04:25;-10.30;99.90
16929;DHT22;8581;47.334;11.190;2022-12-18T05:06:57;-10.00;99.90
16929;DHT22;8581;47.334;11.190;2022-12-18T05:09:29;-10.10;99.90
16929;DHT22;8581;47.334;11.190;2022-12-18T05:12:00;-10.00;99.90
16929;DHT22;8581;47.334;11.190;2022-12-18T05:14:32;-10.00;99.90
16929;DHT22;8581;47.334;11.190;2022-12-18T05:17:04;-10.30;99.90
16929;DHT22;8581;47.334;11.190;2022-12-18T05:19:38;-10.40;99.90
16929;DHT22;8581;47.334;11.190;2022-12-18T05:22:10;-10.30;99.90
16929;DHT22;8581;47.334;11.190;2022-12-18T05:24:41;-10.10;99.90
16929;DHT22;8581;47.334;11.190;2022-12-18T05:27:13;-9.90;99.90
16929;DHT22;8581;47.334;11.190;2022-12-18T05:29:44;-10.10;99.90
16929;DHT22;8581;47.334;11.190;2022-12-18T05:32:16;-10.30;99.90
16929;DHT22;8581;47.334;11.190;2022-12-18T05:34:48;-10.30;99.90
16929;DHT22;8581;47.334;11.190;2022-12-18T05:37:19;-10.20;99.90
16929;DHT22;8581;47.334;11.190;2022-12-18T05:39:51;-10.20;99.90
16929;DHT22;8581;47.334;11.190;2022-12-18T05:42:22;-10.00;99.90
16929;DHT22;8581;47.334;11.190;2022-12-18T05:44:54;-10.10;99.90
16929;DHT22;8581;47.334;11.190;2022-12-18T05:47:26;-10.10;99.90
16929;DHT22;8581;47.334;11.190;2022-12-18T05:49:57;-10.10;99.90
16929;DHT22;8581;47.334;11.190;2022-12-18T05:52:29;-10.10;99.90
16929;DHT22;8581;47.334;11.190;2022-12-18T05:55:00;-10.10;99.90
16929;DHT22;8581;47.334;11.190;2022-12-18T05:57:32;-10.10;99.90
16929;DHT22;8581;47.334;11.190;2022-12-18T06:00:04;-10.10;99.90
16929;DHT22;8581;47.334;11.190;2022-12-18T06:02:36;-10.00;99.90
16929;DHT22;8581;47.334;11.190;2022-12-18T06:05:08;-10.10;99.90
16929;DHT22;8581;47.334;11.190;2022-12-18T06:07:39;-10.10;99.90
16929;DHT22;8581;47.334;11.190;2022-12-18T06:10:11;-10.00;99.90
16929;DHT22;8581;47.334;11.190;2022-12-18T06:12:43;-9.50;99.90
16929;DHT22;8581;47.334;11.190;2022-12-18T06:15:14;-9.10;99.90
16929;DHT22;8581;47.334;11.190;2022-12-18T06:17:46;-9.10;99.90
16929;DHT22;8581;47.334;11.190;2022-12-18T06:20:17;-9.10;99.90
16929;DHT22;8581;47.334;11.190;2022-12-18T06:22:49;-9.00;99.90
16929;DHT22;8581;47.334;11.190;2022-12-18T06:25:21;-9.00;99.90
16929;DHT22;8581;47.334;11.190;2022-12-18T06:27:52;-9.30;99.90
16929;DHT22;8581;47.334;11.190;2022-12-18T06:33:01;-9.20;99.90
16929;DHT22;8581;47.334;11.190;2022-12-18T06:35:33;-8.90;99.90
16929;DHT22;8581;47.334;11.190;2022-12-18T06:38:04;-9.10;99.90
16929;DHT22;8581;47.334;11.190;2022-12-18T06:40:37;-9.50;99.90
16929;DHT22;8581;47.334;11.190;2022-12-18T06:43:08;-9.40;99.90
16929;DHT22;8581;47.334;11.190;2022-12-18T06:45:40;-9.40;99.90
16929;DHT22;8581;47.334;11.190;2022-12-18T06:48:11;-9.60;99.90
16929;DHT22;8581;47.334;11.190;2022-12-18T06:50:43;-9.80;99.90
16929;DHT22;8581;47.334;11.190;2022-12-18T06:53:14;-9.70;99.90
16929;DHT22;8581;47.334;11.190;2022-12-18T06:55:46;-9.70;99.90
16929;DHT22;8581;47.334;11.190;2022-12-18T06:58:18;-9.80;99.90
16929;DHT22;8581;47.334;11.190;2022-12-18T07:00:49;-9.80;99.90
16929;DHT22;8581;47.334;11.190;2022-12-18T07:03:21;-9.90;99.90
16929;DHT22;8581;47.334;11.190;2022-12-18T07:05:52;-10.00;99.90
16929;DHT22;8581;47.334;11.190;2022-12-18T07:08:24;-10.00;99.90
16929;DHT22;8581;47.334;11.190;2022-12-18T07:10:56;-10.00;99.90
16929;DHT22;8581;47.334;11.190;2022-12-18T07:13:27;-10.00;99.90
16929;DHT22;8581;47.334;11.190;2022-12-18T07:16:07;-10.00;99.90
16929;DHT22;8581;47.334;11.190;2022-12-18T07:18:38;-10.10;99.90
16929;DHT22;8581;47.334;11.190;2022-12-18T07:21:11;-10.10;99.90
16929;DHT22;8581;47.334;11.190;2022-12-18T07:23:42;-9.90;99.90
16929;DHT22;8581;47.334;11.190;2022-12-18T07:26:14;-10.10;99.90
16929;DHT22;8581;47.334;11.190;2022-12-18T07:28:45;-10.10;99.90
16929;DHT22;8581;47.334;11.190;2022-12-18T07:31:18;-9.80;99.90
16929;DHT22;8581;47.334;11.190;2022-12-18T07:33:49;-9.90;99.90
16929;DHT22;8581;47.334;11.190;2022-12-18T07:36:23;-9.80;99.90
16929;DHT22;8581;47.334;11.190;2022-12-18T07:38:55;-9.80;99.90
16929;DHT22;8581;47.334;11.190;2022-12-18T07:41:26;-9.70;99.90
16929;DHT22;8581;47.334;11.190;2022-12-18T07:43:58;-9.80;99.90
16929;DHT22;8581;47.334;11.190;2022-12-18T07:46:29;-9.80;99.90
16929;DHT22;8581;47.334;11.190;2022-12-18T07:49:02;-9.70;99.90
16929;DHT22;8581;47.334;11.190;2022-12-18T07:51:33;-9.50;99.90
16929;DHT22;8581;47.334;11.190;2022-12-18T07:54:05;-9.40;99.90
16929;DHT22;8581;47.334;11.190;2022-12-18T07:56:37;-9.10;99.90
16929;DHT22;8581;47.334;11.190;2022-12-18T07:59:08;-9.30;99.90
16929;DHT22;8581;47.334;11.190;2022-12-18T08:01:40;-9.20;99.90
16929;DHT22;8581;47.334;11.190;2022-12-18T08:04:12;-9.20;99.90
16929;DHT22;8581;47.334;11.190;2022-12-18T08:06:43;-9.20;99.90
16929;DHT22;8581;47.334;11.190;2022-12-18T08:09:15;-9.20;99.90
16929;DHT22;8581;47.334;11.190;2022-12-18T08:11:47;-9.20;99.90
16929;DHT22;8581;47.334;11.190;2022-12-18T08:14:18;-9.20;99.90
16929;DHT22;8581;47.334;11.190;2022-12-18T08:16:50;-8.90;99.90
16929;DHT22;8581;47.334;11.190;2022-12-18T08:19:22;-8.60;99.90
16929;DHT22;8581;47.334;11.190;2022-12-18T08:21:53;-8.50;99.90
16929;DHT22;8581;47.334;11.190;2022-12-18T08:24:26;-8.00;99.90
16929;DHT22;8581;47.334;11.190;2022-12-18T08:26:57;-8.00;99.90
16929;DHT22;8581;47.334;11.190;2022-12-18T08:29:29;-7.90;99.90
16929;DHT22;8581;47.334;11.190;2022-12-18T08:32:01;-7.30;99.90
16929;DHT22;8581;47.334;11.190;2022-12-18T08:34:32;-7.20;99.90
16929;DHT22;8581;47.334;11.190;2022-12-18T08:37:04;-7.30;99.90
16929;DHT22;8581;47.334;11.190;2022-12-18T08:39:36;-7.20;99.90
16929;DHT22;8581;47.334;11.190;2022-12-18T08:42:07;-7.00;99.90
16929;DHT22;8581;47.334;11.190;2022-12-18T08:44:45;-6.30;99.90
16929;DHT22;8581;47.334;11.190;2022-12-18T08:47:16;-5.90;99.90
16929;DHT22;8581;47.334;11.190;2022-12-18T08:49:48;-5.90;99.90
16929;DHT22;8581;47.334;11.190;2022-12-18T08:52:19;-5.70;99.90
16929;DHT22;8581;47.334;11.190;2022-12-18T08:54:51;-5.40;99.90
16929;DHT22;8581;47.334;11.190;2022-12-18T08:57:23;-5.10;99.90
16929;DHT22;8581;47.334;11.190;2022-12-18T08:59:54;-4.80;99.90
16929;DHT22;8581;47.334;11.190;2022-12-18T09:02:26;-4.50;99.90
16929;DHT22;8581;47.334;11.190;2022-12-18T09:04:57;-4.10;99.90
16929;DHT22;8581;47.334;11.190;2022-12-18T09:07:29;-3.60;99.90
16929;DHT22;8581;47.334;11.190;2022-12-18T09:10:01;-3.60;99.90
16929;DHT22;8581;47.334;11.190;2022-12-18T09:12:33;-3.90;99.90
16929;DHT22;8581;47.334;11.190;2022-12-18T09:15:06;-3.60;99.90
16929;DHT22;8581;47.334;11.190;2022-12-18T09:17:38;-3.70;99.90
16929;DHT22;8581;47.334;11.190;2022-12-18T09:20:15;-3.50;99.90
16929;DHT22;8581;47.334;11.190;2022-12-18T09:22:47;-2.90;99.90
16929;DHT22;8581;47.334;11.190;2022-12-18T09:25:18;-2.70;99.90
16929;DHT22;8581;47.334;11.190;2022-12-18T09:27:50;-2.50;99.90
16929;DHT22;8581;47.334;11.190;2022-12-18T09:30:22;-2.40;99.90
16929;DHT22;8581;47.334;11.190;2022-12-18T09:32:53;-1.80;99.90
16929;DHT22;8581;47.334;11.190;2022-12-18T09:35:25;-1.30;99.90
16929;DHT22;8581;47.334;11.190;2022-12-18T09:38:08;-1.40;99.90
16929;DHT22;8581;47.334;11.190;2022-12-18T09:40:41;-1.00;99.90
16929;DHT22;8581;47.334;11.190;2022-12-18T09:43:18;-0.80;99.90
16929;DHT22;8581;47.334;11.190;2022-12-18T09:45:52;-1.00;99.90
16929;DHT22;8581;47.334;11.190;2022-12-18T09:48:26;-0.70;99.90
16929;DHT22;8581;47.334;11.190;2022-12-18T09:50:59;-0.10;99.90
16929;DHT22;8581;47.334;11.190;2022-12-18T09:53:30;-0.20;99.90
16929;DHT22;8581;47.334;11.190;2022-12-18T09:56:01;-0.40;99.90
16929;DHT22;8581;47.334;11.190;2022-12-18T09:58:35;-0.10;99.90
16929;DHT22;8581;47.334;11.190;2022-12-18T10:01:09;0.00;99.90
16929;DHT22;8581;47.334;11.190;2022-12-18T10:03:39;0.40;99.90
16929;DHT22;8581;47.334;11.190;2022-12-18T10:06:14;0.40;99.90
16929;DHT22;8581;47.334;11.190;2022-12-18T10:12:02;0.90;99.90
16929;DHT22;8581;47.334;11.190;2022-12-18T10:14:41;1.40;99.90
16929;DHT22;8581;47.334;11.190;2022-12-18T10:20:22;1.20;99.90
16929;DHT22;8581;47.334;11.190;2022-12-18T10:23:17;1.50;99.90
16929;DHT22;8581;47.334;11.190;2022-12-18T10:26:02;1.30;99.90
16929;DHT22;8581;47.334;11.190;2022-12-18T10:28:39;1.50;99.90
16929;DHT22;8581;47.334;11.190;2022-12-18T10:31:18;1.70;99.90
16929;DHT22;8581;47.334;11.190;2022-12-18T10:33:48;1.50;99.90
16929;DHT22;8581;47.334;11.190;2022-12-18T10:36:20;1.50;99.90
16929;DHT22;8581;47.334;11.190;2022-12-18T10:38:51;1.60;99.90
16929;DHT22;8581;47.334;11.190;2022-12-18T10:41:25;1.50;99.90
16929;DHT22;8581;47.334;11.190;2022-12-18T10:44:20;1.50;99.90
16929;DHT22;8581;47.334;11.190;2022-12-18T10:46:51;1.50;99.90
16929;DHT22;8581;47.334;11.190;2022-12-18T10:49:26;1.90;99.90
16929;DHT22;8581;47.334;11.190;2022-12-18T10:52:06;2.30;99.90
16929;DHT22;8581;47.334;11.190;2022-12-18T10:54:36;2.40;99.90
16929;DHT22;8581;47.334;11.190;2022-12-18T10:57:15;2.40;99.90
16929;DHT22;8581;47.334;11.190;2022-12-18T10:59:54;2.30;99.90
16929;DHT22;8581;47.334;11.190;2022-12-18T11:02:33;2.40;99.90
16929;DHT22;8581;47.334;11.190;2022-12-18T11:04:59;2.50;99.90
16929;DHT22;8581;47.334;11.190;2022-12-18T11:07:49;2.60;99.90
16929;DHT22;8581;47.334;11.190;2022-12-18T11:10:22;2.80;99.90
16929;DHT22;8581;47.334;11.190;2022-12-18T11:12:52;2.70;99.90
16929;DHT22;8581;47.334;11.190;2022-12-18T11:15:26;2.70;99.90
16929;DHT22;8581;47.334;11.190;2022-12-18T11:17:57;3.10;99.90
16929;DHT22;8581;47.334;11.190;2022-12-18T11:20:34;2.90;99.90
16929;DHT22;8581;47.334;11.190;2022-12-18T11:23:05;3.10;99.90
16929;DHT22;8581;47.334;11.190;2022-12-18T11:25:36;3.40;99.90
16929;DHT22;8581;47.334;11.190;2022-12-18T11:31:08;3.50;99.90
16929;DHT22;8581;47.334;11.190;2022-12-18T11:33:29;3.00;99.90
16929;DHT22;8581;47.334;11.190;2022-12-18T11:36:01;3.90;99.90
16929;DHT22;8581;47.334;11.190;2022-12-18T11:38:35;4.90;99.90
16929;DHT22;8581;47.334;11.190;2022-12-18T11:43:57;5.30;99.90
16929;DHT22;8581;47.334;11.190;2022-12-18T11:46:33;6.40;99.90
16929;DHT22;8581;47.334;11.190;2022-12-18T11:49:13;6.30;99.90
16929;DHT22;8581;47.334;11.190;2022-12-18T11:51:47;6.90;99.90
16929;DHT22;8581;47.334;11.190;2022-12-18T11:54:16;7.70;99.90
16929;DHT22;8581;47.334;11.190;2022-12-18T11:56:51;8.40;99.90
16929;DHT22;8581;47.334;11.190;2022-12-18T11:59:29;9.60;99.90
16929;DHT22;8581;47.334;11.190;2022-12-18T12:02:11;10.40;99.90
16929;DHT22;8581;47.334;11.190;2022-12-18T12:04:57;11.00;99.90
16929;DHT22;8581;47.334;11.190;2022-12-18T12:07:32;11.80;99.90
16929;DHT22;8581;47.334;11.190;2022-12-18T12:21:24;14.20;95.00
16929;DHT22;8581;47.334;11.190;2022-12-18T12:24:03;14.70;94.10
16929;DHT22;8581;47.334;11.190;2022-12-18T12:32:26;15.30;92.60
16929;DHT22;8581;47.334;11.190;2022-12-18T12:35:08;15.50;92.00
16929;DHT22;8581;47.334;11.190;2022-12-18T12:37:51;14.30;90.10
16929;DHT22;8581;47.334;11.190;2022-12-18T12:40:20;14.50;89.70
16929;DHT22;8581;47.334;11.190;2022-12-18T12:42:55;15.20;83.60
16929;DHT22;8581;47.334;11.190;2022-12-18T12:45:40;15.40;85.70
16929;DHT22;8581;47.334;11.190;2022-12-18T12:51:22;16.70;86.00
16929;DHT22;8581;47.334;11.190;2022-12-18T12:53:54;16.80;82.10
16929;DHT22;8581;47.334;11.190;2022-12-18T12:56:40;16.30;87.90
16929;DHT22;8581;47.334;11.190;2022-12-18T12:59:23;15.40;85.30
16929;DHT22;8581;47.334;11.190;2022-12-18T13:01:58;13.60;88.50
16929;DHT22;8581;47.334;11.190;2022-12-18T13:04:48;11.50;92.20
16929;DHT22;8581;47.334;11.190;2022-12-18T13:07:57;14.10;88.40
16929;DHT22;8581;47.334;11.190;2022-12-18T13:10:30;15.20;85.30
16929;DHT22;8581;47.334;11.190;2022-12-18T13:12:59;16.60;81.00
16929;DHT22;8581;47.334;11.190;2022-12-18T13:15:33;15.80;82.50
16929;DHT22;8581;47.334;11.190;2022-12-18T13:18:23;15.90;84.40
16929;DHT22;8581;47.334;11.190;2022-12-18T13:21:07;16.10;81.70
16929;DHT22;8581;47.334;11.190;2022-12-18T13:23:39;16.70;77.90
16929;DHT22;8581;47.334;11.190;2022-12-18T13:26:31;16.40;78.10
16929;DHT22;8581;47.334;11.190;2022-12-18T13:29:02;15.40;79.20
16929;DHT22;8581;47.334;11.190;2022-12-18T13:31:58;14.60;82.50
16929;DHT22;8581;47.334;11.190;2022-12-18T13:34:29;14.30;83.20
16929;DHT22;8581;47.334;11.190;2022-12-18T13:39:44;13.60;84.80
16929;DHT22;8581;47.334;11.190;2022-12-18T13:42:36;12.10;85.00
16929;DHT22;8581;47.334;11.190;2022-12-18T13:47:52;9.90;93.10
16929;DHT22;8581;47.334;11.190;2022-12-18T13:50:25;7.50;97.20
16929;DHT22;8581;47.334;11.190;2022-12-18T13:52:56;6.10;99.90
16929;DHT22;8581;47.334;11.190;2022-12-18T13:55:28;6.80;98.90
16929;DHT22;8581;47.334;11.190;2022-12-18T13:58:03;6.90;98.30
16929;DHT22;8581;47.334;11.190;2022-12-18T14:00:35;6.30;99.10
16929;DHT22;8581;47.334;11.190;2022-12-18T14:03:23;6.10;99.30
16929;DHT22;8581;47.334;11.190;2022-12-18T14:05:58;5.70;99.90
16929;DHT22;8581;47.334;11.190;2022-12-18T14:08:33;5.60;99.90
16929;DHT22;8581;47.334;11.190;2022-12-18T14:10:59;5.60;99.90
16929;DHT22;8581;47.334;11.190;2022-12-18T14:13:32;5.00;99.90
16929;DHT22;8581;47.334;11.190;2022-12-18T14:16:04;5.50;99.90
16929;DHT22;8581;47.334;11.190;2022-12-18T14:18:50;4.40;99.90
16929;DHT22;8581;47.334;11.190;2022-12-18T14:21:28;3.80;99.90
16929;DHT22;8581;47.334;11.190;2022-12-18T14:24:04;2.60;99.90
16929;DHT22;8581;47.334;11.190;2022-12-18T14:26:35;2.10;99.90
16929;DHT22;8581;47.334;11.190;2022-12-18T14:29:18;1.90;99.90
16929;DHT22;8581;47.334;11.190;2022-12-18T14:34:32;2.00;99.90
16929;DHT22;8581;47.334;11.190;2022-12-18T14:37:03;2.00;99.90
16929;DHT22;8581;47.334;11.190;2022-12-18T14:39:35;1.70;99.90
16929;DHT22;8581;47.334;11.190;2022-12-18T14:42:09;1.40;99.90
16929;DHT22;8581;47.334;11.190;2022-12-18T14:44:38;1.30;99.90
16929;DHT22;8581;47.334;11.190;2022-12-18T14:47:13;1.30;99.90
16929;DHT22;8581;47.334;11.190;2022-12-18T14:49:41;1.20;99.90
16929;DHT22;8581;47.334;11.190;2022-12-18T14:52:22;0.90;99.90
16929;DHT22;8581;47.334;11.190;2022-12-18T14:54:50;0.70;99.90
16929;DHT22;8581;47.334;11.190;2022-12-18T14:57:23;0.30;99.90
16929;DHT22;8581;47.334;11.190;2022-12-18T15:00:02;0.10;99.90
16929;DHT22;8581;47.334;11.190;2022-12-18T15:02:26;-0.10;99.90
16929;DHT22;8581;47.334;11.190;2022-12-18T15:05:04;-0.40;99.90
16929;DHT22;8581;47.334;11.190;2022-12-18T15:07:42;-1.00;99.90
16929;DHT22;8581;47.334;11.190;2022-12-18T15:10:14;-1.30;99.90
16929;DHT22;8581;47.334;11.190;2022-12-18T15:12:49;-1.20;99.90
16929;DHT22;8581;47.334;11.190;2022-12-18T15:18:26;-1.40;99.90
16929;DHT22;8581;47.334;11.190;2022-12-18T15:21:00;-1.30;99.90
16929;DHT22;8581;47.334;11.190;2022-12-18T15:23:38;-1.30;99.90
16929;DHT22;8581;47.334;11.190;2022-12-18T15:26:08;-1.30;99.90
16929;DHT22;8581;47.334;11.190;2022-12-18T15:28:44;-1.50;99.90
16929;DHT22;8581;47.334;11.190;2022-12-18T15:31:28;-1.70;99.90
16929;DHT22;8581;47.334;11.190;2022-12-18T15:34:12;-2.00;99.90
16929;DHT22;8581;47.334;11.190;2022-12-18T15:36:43;-2.30;99.90
16929;DHT22;8581;47.334;11.190;2022-12-18T15:39:14;-2.50;99.90
16929;DHT22;8581;47.334;11.190;2022-12-18T15:41:46;-2.60;99.90
16929;DHT22;8581;47.334;11.190;2022-12-18T15:44:35;-2.70;99.90
16929;DHT22;8581;47.334;11.190;2022-12-18T15:47:10;-2.70;99.90
16929;DHT22;8581;47.334;11.190;2022-12-18T15:49:41;-2.70;99.90
16929;DHT22;8581;47.334;11.190;2022-12-18T15:52:13;-3.00;99.90
16929;DHT22;8581;47.334;11.190;2022-12-18T15:54:45;-3.20;99.90
16929;DHT22;8581;47.334;11.190;2022-12-18T15:57:37;-3.20;99.90
16929;DHT22;8581;47.334;11.190;2022-12-18T16:00:11;-3.20;99.90
16929;DHT22;8581;47.334;11.190;2022-12-18T16:02:41;-3.20;99.90
16929;DHT22;8581;47.334;11.190;2022-12-18T16:05:14;-3.40;99.90
16929;DHT22;8581;47.334;11.190;2022-12-18T16:07:45;-3.60;99.90
16929;DHT22;8581;47.334;11.190;2022-12-18T16:10:18;-3.70;99.90
16929;DHT22;8581;47.334;11.190;2022-12-18T16:12:55;-3.70;99.90
16929;DHT22;8581;47.334;11.190;2022-12-18T16:15:27;-3.70;99.90
16929;DHT22;8581;47.334;11.190;2022-12-18T16:18:02;-3.90;99.90
16929;DHT22;8581;47.334;11.190;2022-12-18T16:20:41;-3.90;99.90
16929;DHT22;8581;47.334;11.190;2022-12-18T16:23:13;-4.10;99.90
16929;DHT22;8581;47.334;11.190;2022-12-18T16:25:44;-4.00;99.90
16929;DHT22;8581;47.334;11.190;2022-12-18T16:28:16;-3.60;99.90
16929;DHT22;8581;47.334;11.190;2022-12-18T16:30:47;-3.30;99.90
16929;DHT22;8581;47.334;11.190;2022-12-18T16:33:20;-3.20;99.90
16929;DHT22;8581;47.334;11.190;2022-12-18T16:35:52;-2.90;99.90
16929;DHT22;8581;47.334;11.190;2022-12-18T16:38:23;-3.10;99.90
16929;DHT22;8581;47.334;11.190;2022-12-18T16:40:55;-3.00;99.90
16929;DHT22;8581;47.334;11.190;2022-12-18T16:43:32;-3.40;99.90
16929;DHT22;8581;47.334;11.190;2022-12-18T16:46:05;-3.60;99.90
16929;DHT22;8581;47.334;11.190;2022-12-18T16:48:36;-3.90;99.90
16929;DHT22;8581;47.334;11.190;2022-12-18T16:51:15;-3.90;99.90
16929;DHT22;8581;47.334;11.190;2022-12-18T16:53:47;-3.30;99.90
16929;DHT22;8581;47.334;11.190;2022-12-18T16:56:19;-3.10;99.90
16929;DHT22;8581;47.334;11.190;2022-12-18T16:58:52;-3.10;99.90
16929;DHT22;8581;47.334;11.190;2022-12-18T17:01:24;-3.40;99.90
16929;DHT22;8581;47.334;11.190;2022-12-18T17:03:57;-3.50;99.90
16929;DHT22;8581;47.334;11.190;2022-12-18T17:06:28;-3.40;99.90